Time,TemperatureF,DewpointF,PressureIn,WindDirection,WindDirectionDegrees,WindSpeedMPH,WindSpeedGustMPH,Humidity,HourlyPrecipIn,Conditions,Clouds,dailyrainin,SoftwareType,DateUTC
2013-04-25 00:03:00,46.0,46.0,29.98,SW,223,1.0,31.0,99,0.00,,,0.00,,2013-04-25 04:03:00,
2013-04-25 00:13:00,47.0,47.0,29.98,SSW,206,2.0,3.0,99,0.00,,,0.00,,2013-04-25 04:13:00,
2013-04-25 00:23:00,47.0,47.0,29.98,SSW,206,2.0,3.0,99,0.00,,,0.00,,2013-04-25 04:23:00,
2013-04-25 00:32:00,47.0,47.0,29.98,SSW,206,2.0,3.0,99,0.00,,,0.00,,2013-04-25 04:32:00,
2013-04-25 00:43:00,47.0,47.0,29.98,SSW,206,2.0,3.0,99,0.00,,,0.00,,2013-04-25 04:43:00,
2013-04-25 00:52:00,47.0,47.0,29.98,SSW,205,1.0,29.0,99,0.00,,,0.00,,2013-04-25 04:52:00,
2013-04-25 01:02:00,47.0,47.0,29.98,SSW,205,1.0,29.0,99,0.00,,,0.00,,2013-04-25 05:02:00,
2013-04-25 01:12:00,47.0,47.0,29.98,SSW,205,1.0,29.0,99,0.00,,,0.00,,2013-04-25 05:12:00,
2013-04-25 01:22:00,47.0,47.0,29.97,SSW,212,1.0,29.0,99,0.00,,,0.00,,2013-04-25 05:22:00,
2013-04-25 01:32:00,47.0,47.0,29.97,SSW,212,1.0,29.0,99,0.00,,,0.00,,2013-04-25 05:32:00,
2013-04-25 01:42:00,47.0,47.0,29.97,SSW,212,1.0,29.0,99,0.00,,,0.00,,2013-04-25 05:42:00,
2013-04-25 01:52:00,48.0,48.0,29.95,South,169,2.0,29.0,99,0.00,,,0.00,,2013-04-25 05:52:00,
2013-04-25 02:02:00,48.0,48.0,29.95,South,169,2.0,29.0,99,0.00,,,0.00,,2013-04-25 06:02:00,
2013-04-25 02:12:00,48.0,48.0,29.95,South,169,2.0,29.0,99,0.00,,,0.00,,2013-04-25 06:12:00,
2013-04-25 02:22:00,48.0,48.0,29.95,SSE,164,0.0,29.0,99,0.00,,,0.00,,2013-04-25 06:22:00,
2013-04-25 02:32:00,48.0,48.0,29.95,SSE,164,0.0,29.0,99,0.00,,,0.00,,2013-04-25 06:32:00,
2013-04-25 02:42:00,48.0,48.0,29.95,SSE,164,0.0,29.0,99,0.00,,,0.00,,2013-04-25 06:42:00,
2013-04-25 02:52:00,48.0,48.0,29.95,SSE,164,0.0,29.0,99,0.00,,,0.00,,2013-04-25 06:52:00,
2013-04-25 03:12:00,48.0,48.0,29.95,SSW,193,0.0,29.0,99,0.00,,,0.00,,2013-04-25 07:12:00,
2013-04-25 03:22:00,48.0,48.0,29.95,SSW,193,0.0,29.0,99,0.00,,,0.00,,2013-04-25 07:22:00,
2013-04-25 03:32:00,48.0,48.0,29.95,SSW,193,0.0,29.0,99,0.00,,,0.00,,2013-04-25 07:32:00,
2013-04-25 03:42:00,48.0,48.0,29.95,SSW,193,0.0,29.0,99,0.00,,,0.00,,2013-04-25 07:42:00,
2013-04-25 03:52:00,49.0,49.0,29.94,SSW,199,1.0,29.0,99,0.00,,,0.00,,2013-04-25 07:52:00,
2013-04-25 04:02:00,49.0,49.0,29.94,SSW,199,1.0,29.0,99,0.00,,,0.00,,2013-04-25 08:02:00,
2013-04-25 04:11:00,49.0,49.0,29.94,SSW,199,1.0,29.0,99,0.00,,,0.00,,2013-04-25 08:11:00,
2013-04-25 04:21:00,49.0,49.0,29.94,WSW,243,0.0,29.0,99,0.00,,,0.00,,2013-04-25 08:21:00,
2013-04-25 04:31:00,49.0,49.0,29.94,WSW,243,0.0,29.0,99,0.00,,,0.00,,2013-04-25 08:31:00,
2013-04-25 04:42:00,49.0,49.0,29.94,WSW,243,0.0,29.0,99,0.00,,,0.00,,2013-04-25 08:42:00,
2013-04-25 04:52:00,49.0,49.0,29.95,WSW,243,0.0,29.0,99,0.00,,,0.00,,2013-04-25 08:52:00,
2013-04-25 05:01:00,49.0,49.0,29.95,WSW,243,0.0,29.0,99,0.00,,,0.00,,2013-04-25 09:01:00,
2013-04-25 05:11:00,49.0,49.0,29.95,WSW,243,0.0,29.0,99,0.00,,,0.00,,2013-04-25 09:11:00,
2013-04-25 05:21:00,49.0,49.0,29.97,West,268,0.0,29.0,99,0.00,,,0.00,,2013-04-25 09:21:00,
2013-04-25 05:33:00,49.0,49.0,29.97,West,268,0.0,29.0,99,0.00,,,0.00,,2013-04-25 09:33:00,
2013-04-25 05:42:00,49.0,49.0,29.97,West,268,0.0,29.0,99,0.00,,,0.00,,2013-04-25 09:42:00,
2013-04-25 05:53:00,49.0,49.0,30.00,West,268,0.0,29.0,99,0.00,,,0.00,,2013-04-25 09:53:00,
2013-04-25 06:02:00,49.0,49.0,30.00,West,268,0.0,29.0,99,0.00,,,0.00,,2013-04-25 10:02:00,
2013-04-25 06:12:00,49.0,49.0,30.00,West,268,0.0,29.0,99,0.00,,,0.00,,2013-04-25 10:12:00,
2013-04-25 06:22:00,49.0,49.0,30.02,WNW,295,0.0,29.0,99,0.03,,,0.03,,2013-04-25 10:22:00,
2013-04-25 06:32:00,49.0,49.0,30.02,WNW,295,0.0,29.0,99,0.03,,,0.03,,2013-04-25 10:32:00,
2013-04-25 06:42:00,49.0,49.0,30.02,WNW,295,0.0,29.0,99,0.03,,,0.03,,2013-04-25 10:42:00,
2013-04-25 06:53:00,49.0,49.0,30.05,NNW,343,8.0,29.0,99,0.03,,,0.03,,2013-04-25 10:53:00,
2013-04-25 07:02:00,49.0,49.0,30.05,NNW,343,8.0,29.0,99,0.03,,,0.03,,2013-04-25 11:02:00,
2013-04-25 07:12:00,49.0,49.0,30.05,NNW,343,8.0,29.0,99,0.03,,,0.03,,2013-04-25 11:12:00,
2013-04-25 07:22:00,47.0,47.0,30.07,North,354,9.0,29.0,99,0.00,,,0.03,,2013-04-25 11:22:00,
2013-04-25 07:32:00,47.0,47.0,30.07,North,354,9.0,29.0,99,0.00,,,0.03,,2013-04-25 11:32:00,
2013-04-25 07:42:00,47.0,47.0,30.07,North,354,9.0,29.0,99,0.00,,,0.03,,2013-04-25 11:42:00,
2013-04-25 07:52:00,47.0,46.0,30.09,NW,326,6.0,29.0,97,0.00,,,0.03,,2013-04-25 11:52:00,
2013-04-25 08:01:00,47.0,46.0,30.09,NW,326,6.0,29.0,97,0.00,,,0.03,,2013-04-25 12:01:00,
2013-04-25 08:12:00,47.0,46.0,30.09,NW,326,6.0,29.0,97,0.00,,,0.03,,2013-04-25 12:12:00,
2013-04-25 08:21:00,46.0,45.0,30.11,NNW,330,8.0,29.0,96,0.01,,,0.04,,2013-04-25 12:21:00,
2013-04-25 08:32:00,46.0,45.0,30.11,NNW,330,8.0,29.0,96,0.01,,,0.04,,2013-04-25 12:32:00,
2013-04-25 08:42:00,46.0,45.0,30.11,NNW,330,8.0,29.0,96,0.01,,,0.04,,2013-04-25 12:42:00,
2013-04-25 08:52:00,42.0,42.0,30.13,NW,310,6.0,29.0,99,0.02,,,0.05,,2013-04-25 12:52:00,
2013-04-25 09:02:00,42.0,42.0,30.13,NW,310,6.0,29.0,99,0.02,,,0.05,,2013-04-25 13:02:00,
2013-04-25 09:11:00,42.0,42.0,30.13,NW,310,6.0,29.0,99,0.02,,,0.05,,2013-04-25 13:11:00,
2013-04-25 09:21:00,44.0,44.0,30.14,NNW,340,7.0,29.0,99,0.01,,,0.05,,2013-04-25 13:21:00,
2013-04-25 09:32:00,44.0,44.0,30.14,NNW,340,7.0,29.0,99,0.01,,,0.05,,2013-04-25 13:32:00,
2013-04-25 09:42:00,44.0,44.0,30.14,NNW,340,7.0,29.0,99,0.01,,,0.05,,2013-04-25 13:42:00,
2013-04-25 09:53:00,45.0,43.0,30.15,NW,316,10.0,29.0,94,0.00,,,0.05,,2013-04-25 13:53:00,
2013-04-25 10:02:00,45.0,43.0,30.15,NW,316,10.0,29.0,94,0.00,,,0.05,,2013-04-25 14:02:00,
2013-04-25 10:11:00,45.0,43.0,30.15,NW,316,10.0,29.0,94,0.00,,,0.05,,2013-04-25 14:11:00,
2013-04-25 10:21:00,47.0,43.0,30.15,NW,320,3.0,29.0,87,0.00,,,0.05,,2013-04-25 14:21:00,
2013-04-25 10:32:00,47.0,43.0,30.15,NW,320,3.0,29.0,87,0.00,,,0.05,,2013-04-25 14:32:00,
2013-04-25 10:42:00,47.0,43.0,30.15,NW,320,3.0,29.0,87,0.00,,,0.05,,2013-04-25 14:42:00,
2013-04-25 10:52:00,49.0,43.0,30.15,NW,306,6.0,29.0,79,0.00,,,0.05,,2013-04-25 14:52:00,
2013-04-25 11:02:00,49.0,43.0,30.15,NW,306,6.0,29.0,79,0.00,,,0.05,,2013-04-25 15:02:00,
2013-04-25 11:11:00,49.0,43.0,30.15,NW,306,6.0,29.0,79,0.00,,,0.05,,2013-04-25 15:11:00,
2013-04-25 11:21:00,51.0,42.0,30.16,NW,314,4.0,29.0,71,0.00,,,0.05,,2013-04-25 15:21:00,
2013-04-25 11:32:00,51.0,40.0,30.17,WNW,303,9.0,29.0,66,0.00,,,0.05,,2013-04-25 15:32:00,
2013-04-25 11:33:00,51.0,42.0,30.16,NW,314,4.0,29.0,71,0.00,,,0.05,,2013-04-25 15:33:00,
2013-04-25 11:42:00,51.0,42.0,30.16,NW,314,4.0,29.0,71,0.00,,,0.05,,2013-04-25 15:42:00,
2013-04-25 11:53:00,51.0,40.0,30.17,WNW,303,9.0,29.0,66,0.00,,,0.05,,2013-04-25 15:53:00,
2013-04-25 12:02:00,51.0,40.0,30.17,WNW,303,9.0,29.0,66,0.00,,,0.05,,2013-04-25 16:02:00,
2013-04-25 12:13:00,51.0,40.0,30.17,WNW,303,9.0,29.0,66,0.00,,,0.05,,2013-04-25 16:13:00,
2013-04-25 12:24:00,51.0,40.0,30.17,WNW,303,9.0,29.0,66,0.00,,,0.05,,2013-04-25 16:24:00,
2013-04-25 12:53:00,54.0,40.0,30.18,WNW,287,1.0,29.0,58,0.00,,,0.05,,2013-04-25 16:53:00,
2013-04-25 13:02:00,54.0,40.0,30.18,WNW,287,1.0,29.0,58,0.00,,,0.05,,2013-04-25 17:02:00,
2013-04-25 13:11:00,54.0,40.0,30.18,WNW,287,1.0,29.0,58,0.00,,,0.05,,2013-04-25 17:11:00,
2013-04-25 13:22:00,56.0,39.0,30.18,NW,320,4.0,29.0,53,0.00,,,0.05,,2013-04-25 17:22:00,
2013-04-25 13:32:00,56.0,39.0,30.18,NW,320,4.0,29.0,53,0.00,,,0.05,,2013-04-25 17:32:00,
2013-04-25 13:42:00,56.0,39.0,30.18,NW,320,4.0,29.0,53,0.00,,,0.05,,2013-04-25 17:42:00,
2013-04-25 13:53:00,56.0,38.0,30.18,NNW,328,2.0,29.0,50,0.00,,,0.05,,2013-04-25 17:53:00,
2013-04-25 14:01:00,56.0,38.0,30.18,NNW,328,2.0,29.0,50,0.00,,,0.05,,2013-04-25 18:01:00,
2013-04-25 14:11:00,56.0,38.0,30.18,NNW,328,2.0,29.0,50,0.00,,,0.05,,2013-04-25 18:11:00,
2013-04-25 14:22:00,57.0,35.0,30.18,NW,322,7.0,29.0,44,0.00,,,0.05,,2013-04-25 18:22:00,
2013-04-25 14:32:00,57.0,35.0,30.18,NW,322,7.0,29.0,44,0.00,,,0.05,,2013-04-25 18:32:00,
2013-04-25 14:43:00,57.0,35.0,30.18,NW,322,7.0,29.0,44,0.00,,,0.05,,2013-04-25 18:43:00,
2013-04-25 14:53:00,58.0,36.0,30.17,NW,323,2.0,29.0,43,0.00,,,0.05,,2013-04-25 18:53:00,
2013-04-25 15:01:00,58.0,36.0,30.17,NW,323,2.0,29.0,43,0.00,,,0.05,,2013-04-25 19:01:00,
2013-04-25 15:12:00,58.0,36.0,30.17,NW,323,2.0,29.0,43,0.00,,,0.05,,2013-04-25 19:12:00,
2013-04-25 15:21:00,59.0,36.0,30.17,North,10,0.0,29.0,42,0.00,,,0.05,,2013-04-25 19:21:00,
2013-04-25 15:31:00,59.0,36.0,30.17,North,10,0.0,29.0,42,0.00,,,0.05,,2013-04-25 19:31:00,
2013-04-25 15:42:00,59.0,36.0,30.17,North,10,0.0,29.0,42,0.00,,,0.05,,2013-04-25 19:42:00,
2013-04-25 15:52:00,60.0,32.0,30.16,WNW,303,5.0,29.0,34,0.00,,,0.05,,2013-04-25 19:52:00,
2013-04-25 16:02:00,60.0,32.0,30.16,WNW,303,5.0,29.0,34,0.00,,,0.05,,2013-04-25 20:02:00,
2013-04-25 16:11:00,60.0,32.0,30.16,WNW,303,5.0,29.0,34,0.00,,,0.05,,2013-04-25 20:11:00,
2013-04-25 16:22:00,60.0,34.0,30.17,North,357,0.0,29.0,37,0.00,,,0.05,,2013-04-25 20:22:00,
2013-04-25 16:32:00,60.0,34.0,30.17,North,357,0.0,29.0,37,0.00,,,0.05,,2013-04-25 20:32:00,
2013-04-25 16:43:00,60.0,34.0,30.17,North,357,0.0,29.0,37,0.00,,,0.05,,2013-04-25 20:43:00,
2013-04-25 16:52:00,60.0,31.0,30.18,NNW,333,1.0,29.0,33,0.00,,,0.05,,2013-04-25 20:52:00,
2013-04-25 17:01:00,60.0,31.0,30.18,NNW,333,1.0,29.0,33,0.00,,,0.05,,2013-04-25 21:01:00,
2013-04-25 17:11:00,60.0,31.0,30.18,NNW,333,1.0,29.0,33,0.00,,,0.05,,2013-04-25 21:11:00,
2013-04-25 17:22:00,60.0,29.0,30.18,NW,321,6.0,29.0,31,0.00,,,0.05,,2013-04-25 21:22:00,
2013-04-25 17:33:00,60.0,29.0,30.18,NW,321,6.0,29.0,31,0.00,,,0.05,,2013-04-25 21:33:00,
2013-04-25 17:42:00,60.0,29.0,30.18,NW,321,6.0,29.0,31,0.00,,,0.05,,2013-04-25 21:42:00,
2013-04-25 17:53:00,59.0,29.0,30.19,NNW,332,2.0,29.0,32,0.00,,,0.05,,2013-04-25 21:53:00,
2013-04-25 18:02:00,59.0,29.0,30.19,NNW,332,2.0,29.0,32,0.00,,,0.05,,2013-04-25 22:02:00,
2013-04-25 18:12:00,59.0,29.0,30.19,NNW,332,2.0,29.0,32,0.00,,,0.05,,2013-04-25 22:12:00,
2013-04-25 18:22:00,59.0,29.0,30.20,NNW,335,1.0,29.0,32,0.00,,,0.05,,2013-04-25 22:22:00,
2013-04-25 18:33:00,59.0,29.0,30.20,NNW,335,1.0,29.0,32,0.00,,,0.05,,2013-04-25 22:33:00,
2013-04-25 18:42:00,59.0,29.0,30.20,NNW,335,1.0,29.0,32,0.00,,,0.05,,2013-04-25 22:42:00,
2013-04-25 18:53:00,59.0,29.0,30.20,NNW,335,1.0,29.0,32,0.00,,,0.05,,2013-04-25 22:53:00,
2013-04-25 19:22:00,57.0,29.0,30.22,NW,308,0.0,29.0,34,0.00,,,0.05,,2013-04-25 23:22:00,
2013-04-25 19:32:00,57.0,29.0,30.22,NW,308,0.0,29.0,34,0.00,,,0.05,,2013-04-25 23:32:00,
2013-04-25 19:42:00,57.0,29.0,30.22,NW,308,0.0,29.0,34,0.00,,,0.05,,2013-04-25 23:42:00,
2013-04-25 19:52:00,55.0,33.0,30.23,WNW,291,0.0,29.0,44,0.00,,,0.05,,2013-04-25 23:52:00,
2013-04-25 20:01:00,55.0,33.0,30.23,WNW,291,0.0,29.0,44,0.00,,,0.05,,2013-04-26 00:01:00,
2013-04-25 20:11:00,55.0,33.0,30.23,WNW,291,0.0,29.0,44,0.00,,,0.05,,2013-04-26 00:11:00,
2013-04-25 20:21:00,52.0,34.0,30.24,WSW,246,0.0,29.0,51,0.00,,,0.05,,2013-04-26 00:21:00,
2013-04-25 20:32:00,52.0,34.0,30.24,WSW,246,0.0,29.0,51,0.00,,,0.05,,2013-04-26 00:32:00,
2013-04-25 20:42:00,52.0,34.0,30.24,WSW,246,0.0,29.0,51,0.00,,,0.05,,2013-04-26 00:42:00,
2013-04-25 20:52:00,50.0,37.0,30.25,WSW,246,0.0,29.0,60,0.00,,,0.05,,2013-04-26 00:52:00,
2013-04-25 21:01:00,50.0,37.0,30.25,WSW,246,0.0,29.0,60,0.00,,,0.05,,2013-04-26 01:01:00,
2013-04-25 21:11:00,50.0,37.0,30.25,WSW,246,0.0,29.0,60,0.00,,,0.05,,2013-04-26 01:11:00,
2013-04-25 21:21:00,50.0,37.0,30.25,WSW,246,0.0,29.0,60,0.00,,,0.05,,2013-04-26 01:21:00,
2013-04-25 21:31:00,50.0,37.0,30.25,WSW,246,0.0,29.0,60,0.00,,,0.05,,2013-04-26 01:31:00,
2013-04-25 21:52:00,50.0,38.0,30.28,WSW,246,0.0,29.0,64,0.00,,,0.05,,2013-04-26 01:52:00,
2013-04-25 22:02:00,50.0,38.0,30.28,WSW,246,0.0,29.0,64,0.00,,,0.05,,2013-04-26 02:02:00,
2013-04-25 22:12:00,50.0,38.0,30.28,WSW,246,0.0,29.0,64,0.00,,,0.05,,2013-04-26 02:12:00,
2013-04-25 22:21:00,48.0,34.0,30.29,WNW,299,0.0,29.0,59,0.00,,,0.05,,2013-04-26 02:21:00,
2013-04-25 22:32:00,48.0,34.0,30.29,WNW,299,0.0,29.0,59,0.00,,,0.05,,2013-04-26 02:32:00,
2013-04-25 22:42:00,48.0,34.0,30.29,WNW,299,0.0,29.0,59,0.00,,,0.05,,2013-04-26 02:42:00,
2013-04-25 22:52:00,50.0,29.0,30.29,NW,312,0.0,29.0,44,0.00,,,0.05,,2013-04-26 02:52:00,
2013-04-25 23:01:00,50.0,29.0,30.29,NW,312,0.0,29.0,44,0.00,,,0.05,,2013-04-26 03:01:00,
2013-04-25 23:11:00,50.0,29.0,30.29,NW,312,0.0,29.0,44,0.00,,,0.05,,2013-04-26 03:11:00,
2013-04-25 23:22:00,49.0,27.0,30.30,NNW,339,0.0,29.0,43,0.00,,,0.05,,2013-04-26 03:22:00,
2013-04-25 23:33:00,49.0,27.0,30.30,NNW,339,0.0,29.0,43,0.00,,,0.05,,2013-04-26 03:33:00,
2013-04-25 23:43:00,49.0,27.0,30.30,NNW,339,0.0,29.0,43,0.00,,,0.05,,2013-04-26 03:43:00,
2013-04-25 23:53:00,46.0,27.0,30.30,NNW,346,0.0,29.0,47,0.00,,,0.05,,2013-04-26 03:53:00,